Terminal Aerodrome Forecast
Issued by NWS

Home | Current Version | Previous Version | Graphics & Text | Print | Product List | Glossary On
Versions: 1 2 3 4 5 6 7 8 9 10 11 12 13 14 15
975
FTUS43 KFGF 222320
TAFBJI
TAF
KBJI 222320Z 2300/2324 29003KT P6SM OVC005
     FM230400 VRB03KT 4SM BR OVC003
      TEMPO 2304/2308 1SM BR
     FM231500 00000KT P6SM BKN008
     FM232000 00000KT P6SM BKN015
     FM232300 00000KT P6SM BKN025=

USA.gov is the U.S. government's official web portal to all federal, state and local government web resources and services.